createdAt,value
2022-12-01T00:01:09.998Z,95330.56
2022-12-01T00:03:36.733Z,95325.13
2022-12-01T00:06:23.419Z,95326.56
2022-12-01T00:09:12.984Z,95326.78
2022-12-01T00:11:41.858Z,95317.03
2022-12-01T00:14:08.472Z,95317.88
2022-12-01T00:16:35.175Z,95316.94
2022-12-01T00:19:02.036Z,95309.31
2022-12-01T00:21:28.968Z,95305.09
2022-12-01T00:23:57.454Z,95304.91
2022-12-01T00:26:26.812Z,95306.66
2022-12-01T00:28:57.352Z,95301.59
2022-12-01T00:31:24.479Z,95298.94
2022-12-01T00:33:51.449Z,95304.03
2022-12-01T00:36:18.504Z,95299.84
2022-12-01T00:38:45.554Z,95302.66
2022-12-01T00:41:12.367Z,95298.00
2022-12-01T00:43:39.750Z,95303.91
2022-12-01T00:46:07.034Z,95306.44
2022-12-01T00:48:33.747Z,95308.81
2022-12-01T00:51:00.552Z,95302.16
2022-12-01T00:53:27.140Z,95309.31
2022-12-01T00:55:56.854Z,95314.22
2022-12-01T00:58:24.112Z,95318.47
2022-12-01T01:01:01.210Z,95310.38
2022-12-01T01:03:29.904Z,95309.44
2022-12-01T01:05:56.737Z,95316.63
2022-12-01T01:08:31.010Z,95313.78
2022-12-01T01:10:59.740Z,95318.88
2022-12-01T01:13:26.349Z,95314.53
2022-12-01T01:16:03.060Z,95320.59
2022-12-01T01:18:30.490Z,95314.84
2022-12-01T01:20:58.638Z,95315.75
2022-12-01T01:23:25.914Z,95315.19
2022-12-01T01:25:52.692Z,95316.09
2022-12-01T01:28:19.960Z,95319.16
2022-12-01T01:30:46.872Z,95321.59
2022-12-01T01:33:13.490Z,95320.13
2022-12-01T01:35:40.028Z,95317.69
2022-12-01T01:38:06.636Z,95320.88
2022-12-01T01:40:33.201Z,95319.78
2022-12-01T01:42:59.951Z,95315.50
2022-12-01T01:45:29.682Z,95314.97
2022-12-01T01:47:59.705Z,95319.41
2022-12-01T01:50:28.754Z,95323.75
2022-12-01T01:53:01.315Z,95319.22
2022-12-01T01:55:30.319Z,95325.22
2022-12-01T01:57:57.211Z,95322.56
2022-12-01T02:00:24.100Z,95324.38
2022-12-01T02:02:51.768Z,95323.97
2022-12-01T02:05:25.598Z,95317.38
2022-12-01T02:07:55.064Z,95314.38
2022-12-01T02:10:27.087Z,95315.91
2022-12-01T02:12:53.508Z,95306.91
2022-12-01T02:15:48.079Z,95314.78
2022-12-01T02:18:45.760Z,95307.09
2022-12-01T02:21:33.552Z,95310.63
2022-12-01T02:24:06.525Z,95307.81
2022-12-01T02:26:49.020Z,95299.72
2022-12-01T02:29:30.686Z,95300.44
2022-12-01T02:31:57.193Z,95298.00
2022-12-01T02:34:57.844Z,95303.63
2022-12-01T02:37:51.754Z,95303.31
2022-12-01T02:40:18.909Z,95305.88
2022-12-01T02:42:54.474Z,95296.28
2022-12-01T02:45:34.583Z,95295.56
2022-12-01T02:48:03.167Z,95298.16
2022-12-01T02:50:33.501Z,95306.28
2022-12-01T02:53:03.069Z,95299.38
2022-12-01T02:55:29.718Z,95299.28
2022-12-01T02:57:56.388Z,95299.00
2022-12-01T03:00:23.030Z,95296.41
2022-12-01T03:03:42.300Z,95297.19
2022-12-01T03:06:29.681Z,95297.84
2022-12-01T03:09:15.771Z,95294.56
2022-12-01T03:12:25.365Z,95291.97
2022-12-01T03:15:00.612Z,95301.94
2022-12-01T03:17:36.155Z,95296.72
2022-12-01T03:20:24.718Z,95289.00
2022-12-01T03:23:01.549Z,95288.19
2022-12-01T03:25:30.404Z,95276.03
2022-12-01T03:28:21.241Z,95282.91
2022-12-01T03:30:48.526Z,95284.81
2022-12-01T03:33:24.110Z,95284.66
2022-12-01T03:35:56.259Z,95290.63
2022-12-01T03:38:26.344Z,95291.22
2022-12-01T03:40:58.635Z,95293.06
2022-12-01T03:43:31.661Z,95291.69
2022-12-01T03:46:12.245Z,95297.06
2022-12-01T03:48:40.435Z,95300.97
2022-12-01T03:51:26.182Z,95303.94
2022-12-01T03:54:20.853Z,95298.03
2022-12-01T03:56:56.969Z,95301.06
2022-12-01T03:59:25.609Z,95305.03
2022-12-01T04:01:52.994Z,95300.97
2022-12-01T04:04:19.801Z,95301.53
2022-12-01T04:06:50.203Z,95308.63
2022-12-01T04:09:17.066Z,95300.69
2022-12-01T04:12:02.124Z,95314.13
2022-12-01T04:14:30.043Z,95302.50
2022-12-01T04:16:56.630Z,95302.88
2022-12-01T04:19:23.202Z,95305.97
2022-12-01T04:21:49.875Z,95303.66
2022-12-01T04:24:16.886Z,95301.44
2022-12-01T04:26:44.412Z,95296.53
2022-12-01T04:29:12.119Z,95302.34
2022-12-01T04:31:39.269Z,95296.63
2022-12-01T04:34:06.512Z,95307.66
2022-12-01T04:36:34.752Z,95299.91
2022-12-01T04:39:02.497Z,95298.00
2022-12-01T04:41:29.081Z,95306.06
2022-12-01T04:43:56.112Z,95304.25
2022-12-01T04:46:23.943Z,95298.97
2022-12-01T04:48:50.773Z,95300.44
2022-12-01T04:51:17.775Z,95298.56
2022-12-01T04:53:44.576Z,95295.38
2022-12-01T04:56:11.193Z,95301.44
2022-12-01T04:58:38.274Z,95300.94
2022-12-01T05:01:10.460Z,95298.47
2022-12-01T05:03:38.300Z,95295.50
2022-12-01T05:06:07.685Z,95307.56
2022-12-01T05:08:34.371Z,95308.88
2022-12-01T05:11:01.683Z,95303.13
2022-12-01T05:13:28.654Z,95304.13
2022-12-01T05:16:05.122Z,95314.00
2022-12-01T05:18:33.122Z,95307.41
2022-12-01T05:21:00.076Z,95310.00
2022-12-01T05:23:31.986Z,95310.81
2022-12-01T05:25:59.024Z,95308.47
2022-12-01T05:28:26.861Z,95308.28
2022-12-01T05:30:54.736Z,95308.13
2022-12-01T05:33:23.152Z,95310.75
2022-12-01T05:35:50.582Z,95309.13
2022-12-01T05:38:17.477Z,95305.59
2022-12-01T05:40:55.864Z,95308.94
2022-12-01T05:43:28.624Z,95306.38
2022-12-01T05:45:57.115Z,95301.59
2022-12-01T05:48:24.107Z,95304.91
2022-12-01T05:50:50.708Z,95308.28
2022-12-01T05:53:18.389Z,95305.31
2022-12-01T05:55:45.296Z,95310.41
2022-12-01T05:58:12.487Z,95312.06
2022-12-01T06:00:45.390Z,95314.75
2022-12-01T06:03:13.109Z,95314.09
2022-12-01T06:05:39.906Z,95310.41
2022-12-01T06:08:06.906Z,95310.91
2022-12-01T06:10:33.535Z,95317.38
2022-12-01T06:13:00.081Z,95312.28
2022-12-01T06:15:27.187Z,95315.56
2022-12-01T06:17:53.979Z,95311.84
2022-12-01T06:20:20.673Z,95314.53
2022-12-01T06:22:47.225Z,95327.97
2022-12-01T06:25:13.824Z,95325.34
2022-12-01T06:27:40.429Z,95323.72
2022-12-01T06:30:07.718Z,95330.59
2022-12-01T06:32:34.579Z,95327.97
2022-12-01T06:35:01.136Z,95324.25
2022-12-01T06:37:28.311Z,95333.78
2022-12-01T06:39:55.057Z,95332.81
2022-12-01T06:42:21.734Z,95335.66
2022-12-01T06:44:48.287Z,95339.66
2022-12-01T06:47:15.942Z,95344.34
2022-12-01T06:49:42.712Z,95339.66
2022-12-01T06:52:10.017Z,95341.38
2022-12-01T06:54:37.467Z,95345.09
2022-12-01T06:57:04.371Z,95343.19
2022-12-01T06:59:31.131Z,95336.72
2022-12-01T07:01:58.394Z,95337.38
2022-12-01T07:04:24.989Z,95342.69
2022-12-01T07:06:51.613Z,95348.44
2022-12-01T07:09:18.195Z,95340.81
2022-12-01T07:11:44.755Z,95338.56
2022-12-01T07:14:22.086Z,95342.03
2022-12-01T07:16:48.785Z,95345.22
2022-12-01T07:19:15.401Z,95346.03
2022-12-01T07:21:42.024Z,95345.94
2022-12-01T07:24:09.004Z,95348.06
2022-12-01T07:26:35.732Z,95356.09
2022-12-01T07:29:02.293Z,95357.69
2022-12-01T07:31:28.903Z,95360.97
2022-12-01T07:33:55.664Z,95360.47
2022-12-01T07:36:22.313Z,95357.19
2022-12-01T07:38:48.860Z,95362.03
2022-12-01T07:41:19.044Z,95359.47
2022-12-01T07:43:46.214Z,95368.91
2022-12-01T07:46:21.758Z,95363.81
2022-12-01T07:48:50.061Z,95355.91
2022-12-01T07:51:16.832Z,95368.47
2022-12-01T07:53:45.271Z,95368.38
2022-12-01T07:56:12.691Z,95369.13
2022-12-01T07:58:39.641Z,95363.06
2022-12-01T08:01:09.634Z,95366.25
2022-12-01T08:03:36.441Z,95366.97
2022-12-01T08:06:04.619Z,95366.53
2022-12-01T08:08:32.834Z,95362.63
2022-12-01T08:11:01.824Z,95366.19
2022-12-01T08:13:28.816Z,95363.28
2022-12-01T08:15:55.945Z,95376.56
2022-12-01T08:18:23.179Z,95377.91
2022-12-01T08:20:50.591Z,95376.38
2022-12-01T08:23:17.334Z,95379.47
2022-12-01T08:25:43.897Z,95374.94
2022-12-01T08:28:10.496Z,95381.16
2022-12-01T08:30:37.122Z,95375.75
2022-12-01T08:33:03.714Z,95383.28
2022-12-01T08:35:30.321Z,95385.03
2022-12-01T08:37:56.935Z,95386.09
2022-12-01T08:40:23.552Z,95386.59
2022-12-01T08:42:52.127Z,95380.06
2022-12-01T08:45:18.988Z,95387.09
2022-12-01T08:47:45.530Z,95378.53
2022-12-01T08:50:12.214Z,95387.63
2022-12-01T08:52:38.807Z,95384.09
2022-12-01T08:55:06.023Z,95386.56
2022-12-01T08:57:32.609Z,95384.28
2022-12-01T08:59:59.155Z,95376.38
2022-12-01T09:02:25.931Z,95379.00
2022-12-01T09:04:52.567Z,95377.66
2022-12-01T09:07:26.098Z,95379.06
2022-12-01T09:09:53.303Z,95383.50
2022-12-01T09:12:19.912Z,95380.88
2022-12-01T09:14:49.781Z,95381.16
2022-12-01T09:17:17.592Z,95382.97
2022-12-01T09:19:44.501Z,95378.97
2022-12-01T09:22:11.988Z,95376.84
2022-12-01T09:24:38.940Z,95375.31
2022-12-01T09:27:06.466Z,95379.69
2022-12-01T09:29:33.108Z,95380.69
2022-12-01T09:32:00.821Z,95375.69
2022-12-01T09:34:29.051Z,95378.78
2022-12-01T09:36:58.264Z,95367.81
2022-12-01T09:39:25.586Z,95360.50
2022-12-01T09:41:57.561Z,95368.88
2022-12-01T09:44:41.599Z,95371.84
2022-12-01T09:47:24.915Z,95371.84
2022-12-01T09:50:25.481Z,95375.88
2022-12-01T09:52:57.976Z,95361.44
2022-12-01T09:55:25.738Z,95368.13
2022-12-01T09:57:55.019Z,95367.06
2022-12-01T10:00:24.992Z,95356.69
2022-12-01T10:03:00.537Z,95356.69
2022-12-01T10:06:02.910Z,95355.69
2022-12-01T10:08:31.670Z,95352.50
2022-12-01T10:11:05.654Z,95348.97
2022-12-01T10:13:33.067Z,95347.03
2022-12-01T10:16:09.960Z,95354.13
2022-12-01T10:18:51.824Z,95350.22
2022-12-01T10:21:36.895Z,95342.09
2022-12-01T10:24:21.870Z,95344.66
2022-12-01T10:26:55.251Z,95339.88
2022-12-01T10:29:36.663Z,95336.91
2022-12-01T10:32:14.838Z,95333.00
2022-12-01T10:34:43.172Z,95337.00
2022-12-01T10:37:18.818Z,95328.53
2022-12-01T10:39:49.477Z,95329.13
2022-12-01T10:42:19.373Z,95325.41
2022-12-01T10:44:46.567Z,95320.44
2022-12-01T10:47:23.173Z,95317.84
2022-12-01T10:49:50.147Z,95321.16
2022-12-01T10:52:32.175Z,95317.63
2022-12-01T10:54:59.209Z,95316.06
2022-12-01T10:57:28.012Z,95318.31
2022-12-01T11:00:01.626Z,95310.34
2022-12-01T11:02:30.575Z,95310.59
2022-12-01T11:05:03.280Z,95318.69
2022-12-01T11:07:42.410Z,95311.31
2022-12-01T11:10:26.120Z,95306.41
2022-12-01T11:13:05.435Z,95304.47
2022-12-01T11:15:53.311Z,95304.97
2022-12-01T11:18:24.515Z,95296.75
2022-12-01T11:21:06.350Z,95300.03
2022-12-01T11:23:35.514Z,95299.97
2022-12-01T11:26:20.739Z,95296.13
2022-12-01T11:28:54.705Z,95301.28
2022-12-01T11:31:36.154Z,95301.16
2022-12-01T11:34:02.888Z,95301.16
2022-12-01T11:36:42.308Z,95300.22
2022-12-01T11:39:25.553Z,95293.19
2022-12-01T11:42:00.400Z,95291.34
2022-12-01T11:44:50.403Z,95289.81
2022-12-01T11:47:24.168Z,95285.03
2022-12-01T11:49:58.550Z,95286.25
2022-12-01T11:52:44.884Z,95288.78
2022-12-01T11:55:11.355Z,95282.88
2022-12-01T11:57:43.672Z,95291.44
2022-12-01T12:00:15.498Z,95287.34
2022-12-01T12:02:54.853Z,95281.44
2022-12-01T12:05:42.399Z,95293.47
2022-12-01T12:08:09.099Z,95286.75
2022-12-01T12:10:48.379Z,95278.88
2022-12-01T12:14:17.654Z,95288.56
2022-12-01T12:17:05.839Z,95286.19
2022-12-01T12:20:09.610Z,95287.41
2022-12-01T12:22:55.389Z,95290.16
2022-12-01T12:25:42.690Z,95290.78
2022-12-01T12:28:27.811Z,95285.59
2022-12-01T12:31:10.061Z,95279.09
2022-12-01T12:33:55.638Z,95287.13
2022-12-01T12:36:25.045Z,95281.09
2022-12-01T12:39:19.534Z,95281.31
2022-12-01T12:41:50.180Z,95282.31
2022-12-01T12:44:33.751Z,95280.16
2022-12-01T12:47:30.793Z,95280.66
2022-12-01T12:50:00.409Z,95278.63
2022-12-01T12:52:33.541Z,95276.28
2022-12-01T12:55:03.075Z,95277.44
2022-12-01T12:57:34.021Z,95276.59
2022-12-01T13:00:06.695Z,95270.88
2022-12-01T13:02:41.210Z,95281.34
2022-12-01T13:05:36.132Z,95282.06
2022-12-01T13:08:09.122Z,95292.63
2022-12-01T13:10:48.757Z,95284.50
2022-12-01T13:13:38.985Z,95281.13
2022-12-01T13:16:11.060Z,95282.41
2022-12-01T13:18:55.197Z,95275.31
2022-12-01T13:21:23.855Z,95273.91
2022-12-01T13:23:52.391Z,95281.44
2022-12-01T13:26:21.179Z,95277.78
2022-12-01T13:28:57.480Z,95275.25
2022-12-01T13:31:24.780Z,95274.22
2022-12-01T13:33:56.524Z,95270.75
2022-12-01T13:36:45.755Z,95275.84
2022-12-01T13:39:25.328Z,95272.22
2022-12-01T13:42:04.062Z,95270.56
2022-12-01T13:44:39.247Z,95269.56
2022-12-01T13:47:11.621Z,95279.03
2022-12-01T13:49:45.899Z,95278.19
2022-12-01T13:52:21.434Z,95274.66
2022-12-01T13:55:09.554Z,95274.66
2022-12-01T13:57:36.113Z,95275.75
2022-12-01T14:00:30.591Z,95273.81
2022-12-01T14:03:20.274Z,95267.81
2022-12-01T14:06:02.023Z,95269.72
2022-12-01T14:08:40.138Z,95269.41
2022-12-01T14:11:26.600Z,95267.78
2022-12-01T14:13:58.934Z,95267.25
2022-12-01T14:16:45.105Z,95269.69
2022-12-01T14:19:44.939Z,95272.53
2022-12-01T14:22:29.835Z,95270.88
2022-12-01T14:24:56.464Z,95270.44
2022-12-01T14:27:39.767Z,95270.91
2022-12-01T14:30:40.863Z,95267.69
2022-12-01T14:33:47.752Z,95274.41
2022-12-01T14:36:21.448Z,95273.59
2022-12-01T14:38:51.183Z,95271.97
2022-12-01T14:41:25.493Z,95269.44
2022-12-01T14:44:03.627Z,95275.41
2022-12-01T14:47:09.777Z,95272.69
2022-12-01T14:49:51.100Z,95279.31
2022-12-01T14:52:26.749Z,95276.03
2022-12-01T14:54:56.657Z,95278.06
2022-12-01T14:57:34.198Z,95275.53
2022-12-01T15:00:04.947Z,95273.56
2022-12-01T15:02:32.208Z,95271.72
2022-12-01T15:05:16.704Z,95274.84
2022-12-01T15:07:48.542Z,95274.44
2022-12-01T15:10:21.160Z,95277.19
2022-12-01T15:12:49.169Z,95282.56
2022-12-01T15:15:23.466Z,95279.75
2022-12-01T15:17:51.721Z,95278.09
2022-12-01T15:20:35.620Z,95278.28
2022-12-01T15:23:12.869Z,95282.50
2022-12-01T15:25:43.185Z,95284.47
2022-12-01T15:28:19.900Z,95282.03
2022-12-01T15:30:51.764Z,95283.75
2022-12-01T15:33:36.706Z,95279.59
2022-12-01T15:36:04.624Z,95282.31
2022-12-01T15:38:34.365Z,95279.38
2022-12-01T15:43:57.712Z,95285.53
2022-12-01T15:46:34.313Z,95289.78
2022-12-01T15:49:29.627Z,95297.72
2022-12-01T15:52:06.783Z,95289.78
2022-12-01T15:54:33.992Z,95289.63
2022-12-01T15:57:01.220Z,95286.03
2022-12-01T15:59:35.613Z,95294.06
2022-12-01T16:02:15.161Z,95292.63
2022-12-01T16:04:41.873Z,95291.91
2022-12-01T16:07:10.565Z,95279.06
2022-12-01T16:09:40.320Z,95283.06
2022-12-01T16:12:07.317Z,95277.16
2022-12-01T16:14:34.806Z,95281.41
2022-12-01T16:17:02.095Z,95276.22
2022-12-01T16:19:33.741Z,95285.69
2022-12-01T16:22:03.142Z,95277.16
2022-12-01T16:24:34.280Z,95283.59
2022-12-01T16:27:08.685Z,95281.34
2022-12-01T16:29:49.402Z,95282.44
2022-12-01T16:32:32.090Z,95281.72
2022-12-01T16:34:58.865Z,95281.81
2022-12-01T16:37:28.864Z,95284.63
2022-12-01T16:39:55.596Z,95284.16
2022-12-01T16:42:22.595Z,95288.44
2022-12-01T16:44:51.093Z,95297.34
2022-12-01T16:47:24.365Z,95288.97
2022-12-01T16:49:51.991Z,95288.00
2022-12-01T16:52:43.520Z,95288.63
2022-12-01T16:55:16.913Z,95296.16
2022-12-01T16:57:43.485Z,95289.63
2022-12-01T17:00:12.367Z,95282.72
2022-12-01T17:02:38.979Z,95290.19
2022-12-01T17:05:05.780Z,95290.81
2022-12-01T17:07:32.396Z,95290.81
2022-12-01T17:09:59.133Z,95293.97
2022-12-01T17:12:26.748Z,95288.16
2022-12-01T17:14:53.327Z,95285.81
2022-12-01T17:17:19.879Z,95290.28
2022-12-01T17:19:46.432Z,95284.00
2022-12-01T17:22:13.050Z,95283.16
2022-12-01T17:24:39.578Z,95286.81
2022-12-01T17:27:06.150Z,95288.81
2022-12-01T17:29:32.789Z,95285.19
2022-12-01T17:31:59.339Z,95280.88
2022-12-01T17:34:25.875Z,95284.25
2022-12-01T17:36:52.747Z,95280.63
2022-12-01T17:39:19.445Z,95281.53
2022-12-01T17:41:46.013Z,95278.91
2022-12-01T17:44:12.590Z,95277.81
2022-12-01T17:46:41.530Z,95281.78
2022-12-01T17:49:10.563Z,95283.06
2022-12-01T17:51:37.188Z,95278.97
2022-12-01T17:54:04.074Z,95285.09
2022-12-01T17:56:30.874Z,95288.25
2022-12-01T17:58:57.417Z,95279.06
2022-12-01T18:01:30.002Z,95282.44
2022-12-01T18:04:00.212Z,95287.44
2022-12-01T18:06:27.437Z,95287.44
2022-12-01T18:08:54.163Z,95285.00
2022-12-01T18:11:21.982Z,95286.53
2022-12-01T18:13:50.730Z,95294.81
2022-12-01T18:16:20.107Z,95294.50
2022-12-01T18:18:47.253Z,95294.50
2022-12-01T18:21:16.786Z,95293.00
2022-12-01T18:23:52.646Z,95297.78
2022-12-01T18:26:21.818Z,95297.44
2022-12-01T18:28:57.040Z,95295.16
2022-12-01T18:31:24.500Z,95292.88
2022-12-01T18:33:51.739Z,95294.91
2022-12-01T18:36:21.764Z,95299.16
2022-12-01T18:38:49.424Z,95300.06
2022-12-01T18:41:16.912Z,95299.63
2022-12-01T18:43:44.265Z,95305.69
2022-12-01T18:46:13.665Z,95300.53
2022-12-01T18:48:48.479Z,95298.25
2022-12-01T18:51:15.469Z,95300.06
2022-12-01T18:53:42.853Z,95288.16
2022-12-01T18:56:12.028Z,95288.63
2022-12-01T18:58:39.665Z,95291.06
2022-12-01T19:01:27.574Z,95290.53
2022-12-01T19:03:55.525Z,95282.28
2022-12-01T19:06:22.982Z,95286.63
2022-12-01T19:08:50.071Z,95281.53
2022-12-01T19:11:17.163Z,95284.53
2022-12-01T19:13:44.279Z,95281.63
2022-12-01T19:16:14.702Z,95290.00
2022-12-01T19:18:42.072Z,95287.47
2022-12-01T19:21:11.325Z,95287.63
2022-12-01T19:23:37.974Z,95287.63
2022-12-01T19:26:06.706Z,95294.63
2022-12-01T19:28:34.934Z,95294.69
2022-12-01T19:31:06.884Z,95297.34
2022-12-01T19:33:33.899Z,95291.38
2022-12-01T19:36:05.819Z,95294.69
2022-12-01T19:38:32.437Z,95293.19
2022-12-01T19:40:59.076Z,95295.00
2022-12-01T19:43:25.653Z,95295.63
2022-12-01T19:45:52.225Z,95299.25
2022-12-01T19:48:18.863Z,95297.25
2022-12-01T19:50:45.433Z,95297.19
2022-12-01T19:53:12.015Z,95292.44
2022-12-01T19:55:38.860Z,95302.78
2022-12-01T19:58:05.979Z,95294.25
2022-12-01T20:00:32.569Z,95296.34
2022-12-01T20:03:00.381Z,95301.63
2022-12-01T20:05:27.174Z,95303.88
2022-12-01T20:07:53.866Z,95303.97
2022-12-01T20:10:20.644Z,95296.91
2022-12-01T20:12:47.947Z,95300.25
2022-12-01T20:15:15.373Z,95292.91
2022-12-01T20:17:42.380Z,95289.63
2022-12-01T20:20:10.809Z,95294.88
2022-12-01T20:22:38.115Z,95292.91
2022-12-01T20:25:05.772Z,95291.00
2022-12-01T20:27:32.762Z,95294.53
2022-12-01T20:29:59.311Z,95293.34
2022-12-01T20:32:25.938Z,95291.44
2022-12-01T20:34:52.832Z,95290.25
2022-12-01T20:37:19.733Z,95294.88
2022-12-01T20:39:47.351Z,95290.53
2022-12-01T20:42:13.966Z,95287.00
2022-12-01T20:44:40.633Z,95291.81
2022-12-01T20:47:07.214Z,95286.25
2022-12-01T20:49:33.849Z,95291.59
2022-12-01T20:52:00.412Z,95292.63
2022-12-01T20:54:28.702Z,95299.44
2022-12-01T20:56:56.746Z,95296.00
2022-12-01T20:59:23.420Z,95292.78
2022-12-01T21:01:50.063Z,95298.53
2022-12-01T21:04:17.618Z,95294.16
2022-12-01T21:06:44.209Z,95299.44
2022-12-01T21:09:12.395Z,95291.97
2022-12-01T21:12:07.663Z,95292.34
2022-12-01T21:15:00.053Z,95293.91
2022-12-01T21:17:34.242Z,95299.06
2022-12-01T21:20:05.577Z,95300.69
2022-12-01T21:22:32.240Z,95295.53
2022-12-01T21:25:23.377Z,95294.09
2022-12-01T21:27:50.613Z,95291.16
2022-12-01T21:30:24.906Z,95285.97
2022-12-01T21:32:52.864Z,95282.63
2022-12-01T21:35:21.398Z,95285.81
2022-12-01T21:37:49.244Z,95287.34
2022-12-01T21:40:22.990Z,95289.88
2022-12-01T21:42:50.082Z,95283.97
2022-12-01T21:45:22.294Z,95284.06
2022-12-01T21:47:48.918Z,95279.09
2022-12-01T21:50:22.335Z,95277.28
2022-12-01T21:52:49.933Z,95281.06
2022-12-01T21:55:16.432Z,95274.16
2022-12-01T21:57:51.169Z,95276.91
2022-12-01T22:00:33.023Z,95276.34
2022-12-01T22:03:06.064Z,95282.81
2022-12-01T22:05:55.852Z,95275.72
2022-12-01T22:08:34.406Z,95276.63
2022-12-01T22:11:03.943Z,95269.63
2022-12-01T22:13:59.236Z,95272.34
2022-12-01T22:16:28.578Z,95274.53
2022-12-01T22:18:57.244Z,95270.28
2022-12-01T22:21:23.809Z,95276.63
2022-12-01T22:24:15.840Z,95278.72
2022-12-01T22:26:47.737Z,95273.97
2022-12-01T22:29:28.369Z,95269.25
2022-12-01T22:32:12.997Z,95266.47
2022-12-01T22:34:49.143Z,95264.47
2022-12-01T22:37:20.750Z,95256.47
2022-12-01T22:39:50.261Z,95256.19
2022-12-01T22:42:32.028Z,95264.53
2022-12-01T22:45:25.685Z,95259.00
2022-12-01T22:48:00.339Z,95253.38
2022-12-01T22:50:32.554Z,95252.47
2022-12-01T22:53:06.065Z,95247.56
2022-12-01T22:55:32.662Z,95248.75
2022-12-01T22:57:59.806Z,95247.56
2022-12-01T23:00:27.197Z,95247.00
2022-12-01T23:02:55.832Z,95248.91
2022-12-01T23:05:27.945Z,95243.09
2022-12-01T23:07:55.334Z,95246.38
2022-12-01T23:10:41.485Z,95243.66
2022-12-01T23:13:21.967Z,95247.56
2022-12-01T23:15:51.657Z,95243.03
2022-12-01T23:18:23.033Z,95245.38
2022-12-01T23:20:52.884Z,95240.75
2022-12-01T23:23:28.366Z,95241.94
2022-12-01T23:25:55.669Z,95239.19
2022-12-01T23:28:23.231Z,95234.94
2022-12-01T23:30:56.834Z,95237.84
2022-12-01T23:33:30.396Z,95225.75
2022-12-01T23:36:02.253Z,95230.22
2022-12-01T23:38:35.954Z,95223.31
2022-12-01T23:41:06.245Z,95219.94
2022-12-01T23:43:40.141Z,95211.53
2022-12-01T23:46:09.644Z,95219.41
2022-12-01T23:48:39.491Z,95210.69
2022-12-01T23:51:15.780Z,95215.78
2022-12-01T23:53:43.136Z,95207.78
2022-12-01T23:56:14.327Z,95206.69
2022-12-01T23:58:40.975Z,95206.06
